Time;durP1;ratioP1;P1;durP2;ratioP2;P2;SDS_P1;SDS_P2;PMS_P1;PMS_P2;Temp;Humidity;BMP_temperature;BMP_pressure;BME280_temperature;BME280_humidity;BME280_pressure;Samples;Min_cycle;Max_cycle;Signal;HPM_P1;HPM_P2
2023/09/09 00:01:23;;;;;;;7.75;3.33;;;;;;;18.96;100.00;101393.03;6225154;28;20113;-73
2023/09/09 00:04:24;;;;;;;7.80;4.10;;;;;;;18.92;100.00;101384.41;6225359;28;20057;-73
2023/09/09 00:07:25;;;;;;;6.35;3.70;;;;;;;18.94;100.00;101387.81;6225356;28;20054;-73
2023/09/09 00:10:27;;;;;;;5.65;3.50;;;;;;;18.83;100.00;101390.47;6224944;28;20448;-73
2023/09/09 00:13:28;;;;;;;8.70;4.10;;;;;;;18.86;100.00;101389.41;6225208;28;20041;-73
2023/09/09 00:16:34;;;;;;;7.63;3.72;;;;;;;18.81;100.00;101383.59;6225250;28;20366;-73
2023/09/09 00:19:36;;;;;;;7.15;3.67;;;;;;;18.77;100.00;101382.97;6224998;28;20053;-73
2023/09/09 00:22:38;;;;;;;7.07;3.50;;;;;;;18.68;100.00;101376.50;6225207;28;20061;-73
2023/09/09 00:25:41;;;;;;;7.05;3.38;;;;;;;18.67;100.00;101380.13;6225265;28;20421;-73
2023/09/09 00:28:43;;;;;;;5.47;3.40;;;;;;;18.66;100.00;101380.22;6226923;28;20050;-73
2023/09/09 00:31:45;;;;;;;6.35;3.60;;;;;;;18.63;100.00;101381.34;6229694;28;20053;-73
2023/09/09 00:34:47;;;;;;;7.18;3.45;;;;;;;18.64;100.00;101375.03;6229456;28;20042;-73
2023/09/09 00:37:48;;;;;;;5.43;3.22;;;;;;;18.67;100.00;101382.81;6229353;28;20469;-73
2023/09/09 00:41:12;;;;;;;6.90;4.03;;;;;;;18.65;100.00;101376.72;6229115;28;20057;-73
2023/09/09 00:44:13;;;;;;;7.60;3.92;;;;;;;18.55;100.00;101375.75;6229182;28;20323;-73
2023/09/09 00:47:17;;;;;;;7.57;3.75;;;;;;;18.58;100.00;101372.84;6229164;28;20126;-73
2023/09/09 00:50:20;;;;;;;5.10;3.50;;;;;;;18.55;100.00;101373.09;6228783;28;20600;-73
2023/09/09 00:53:21;;;;;;;5.82;3.60;;;;;;;18.48;100.00;101374.50;6229209;28;20041;-73
2023/09/09 00:56:22;;;;;;;7.00;3.88;;;;;;;18.49;100.00;101373.56;6229261;28;20056;-73
2023/09/09 00:59:24;;;;;;;7.65;3.92;;;;;;;18.40;100.00;101371.59;6268686;22;20349;-71
2023/09/09 01:02:27;;;;;;;5.82;3.85;;;;;;;18.34;100.00;101367.56;6253645;28;20057;-71
2023/09/09 01:05:29;;;;;;;7.43;4.45;;;;;;;18.33;100.00;101362.38;6253405;28;20046;-72
2023/09/09 01:08:31;;;;;;;8.13;4.28;;;;;;;18.30;100.00;101365.28;6252900;28;20096;-71
2023/09/09 01:11:33;;;;;;;4.38;3.13;;;;;;;18.29;100.00;101360.91;6253355;28;20082;-71
2023/09/09 01:14:34;;;;;;;6.53;4.03;;;;;;;18.22;100.00;101363.22;6253070;28;20046;-71
2023/09/09 01:17:38;;;;;;;5.90;3.58;;;;;;;18.19;100.00;101360.78;6253041;28;20057;-71
2023/09/09 01:20:43;;;;;;;6.53;4.30;;;;;;;18.11;100.00;101356.03;6252864;28;20041;-71
2023/09/09 01:23:46;;;;;;;8.52;4.13;;;;;;;18.11;100.00;101363.16;6253012;28;20054;-72
2023/09/09 01:26:47;;;;;;;6.65;3.55;;;;;;;18.12;100.00;101363.06;6252824;28;20365;-71
2023/09/09 01:29:49;;;;;;;5.90;2.97;;;;;;;18.10;100.00;101369.44;6252661;28;20046;-71
2023/09/09 01:32:50;;;;;;;8.77;3.90;;;;;;;18.06;100.00;101370.63;6252669;28;20365;-71
2023/09/09 01:35:51;;;;;;;5.50;3.40;;;;;;;18.06;100.00;101368.81;6252635;28;20045;-72
2023/09/09 01:38:54;;;;;;;4.95;2.92;;;;;;;17.99;100.00;101372.91;6252255;28;20049;-72
2023/09/09 01:41:56;;;;;;;6.45;3.47;;;;;;;17.92;100.00;101369.00;6252619;28;20057;-72
2023/09/09 01:44:57;;;;;;;6.50;3.67;;;;;;;17.86;100.00;101364.16;6252282;28;20045;-72
2023/09/09 01:47:59;;;;;;;7.97;3.80;;;;;;;17.82;100.00;101365.34;6251873;28;20045;-72
2023/09/09 01:51:00;;;;;;;6.88;3.42;;;;;;;17.87;100.00;101373.81;6252532;28;20064;-71
2023/09/09 01:54:03;;;;;;;4.93;3.50;;;;;;;17.83;100.00;101367.88;6240652;28;20050;-71
2023/09/09 01:57:05;;;;;;;8.15;3.63;;;;;;;17.85;100.00;101367.75;6223831;28;20050;-71
2023/09/09 02:00:08;;;;;;;5.32;3.55;;;;;;;17.81;100.00;101364.50;6218854;28;20041;-70
2023/09/09 02:03:09;;;;;;;8.05;3.30;;;;;;;17.78;100.00;101370.03;6222760;28;20042;-72
2023/09/09 02:06:10;;;;;;;6.78;3.42;;;;;;;17.79;100.00;101366.41;6224303;28;20053;-71
2023/09/09 02:09:14;;;;;;;5.95;3.80;;;;;;;17.70;100.00;101364.38;6227277;28;20046;-71
2023/09/09 02:12:15;;;;;;;5.65;3.63;;;;;;;17.68;100.00;101366.31;6227417;28;20135;-71
2023/09/09 02:15:17;;;;;;;6.53;3.35;;;;;;;17.69;100.00;101362.69;6227477;28;20053;-70
2023/09/09 02:18:18;;;;;;;5.10;3.30;;;;;;;17.59;100.00;101365.19;6227004;28;20060;-69
2023/09/09 02:21:20;;;;;;;6.03;3.67;;;;;;;17.56;100.00;101356.56;6217932;28;20350;-70
2023/09/09 02:24:22;;;;;;;7.10;4.05;;;;;;;17.54;100.00;101348.72;6226896;28;20046;-70
2023/09/09 02:27:24;;;;;;;7.68;3.80;;;;;;;17.47;100.00;101356.28;6226709;28;20433;-70
2023/09/09 02:30:26;;;;;;;7.40;4.28;;;;;;;17.45;100.00;101362.69;6226511;28;20331;-69
2023/09/09 02:33:27;;;;;;;5.78;3.33;;;;;;;17.53;100.00;101356.78;6226968;28;20132;-70
2023/09/09 02:36:29;;;;;;;7.78;4.22;;;;;;;17.50;100.00;101356.06;6226758;28;20451;-72
2023/09/09 02:39:31;;;;;;;6.55;3.05;;;;;;;17.48;100.00;101354.47;6226623;28;20057;-71
2023/09/09 02:42:33;;;;;;;9.98;3.85;;;;;;;17.45;100.00;101360.03;6226537;28;20046;-70
2023/09/09 02:45:34;;;;;;;5.95;3.80;;;;;;;17.44;100.00;101351.22;6218197;28;20446;-71
2023/09/09 02:48:36;;;;;;;10.02;4.20;;;;;;;17.35;100.00;101361.63;6218040;28;20054;-71
2023/09/09 02:51:38;;;;;;;5.22;3.45;;;;;;;17.27;100.00;101356.03;6225939;28;20061;-70
2023/09/09 02:54:41;;;;;;;7.65;4.30;;;;;;;17.30;100.00;101350.47;6226579;28;20124;-72
2023/09/09 02:57:42;;;;;;;9.50;3.67;;;;;;;17.29;100.00;101351.44;6225967;28;20053;-69
2023/09/09 03:00:44;;;;;;;10.05;3.58;;;;;;;17.19;100.00;101352.09;6226381;28;20053;-71
2023/09/09 03:03:45;;;;;;;5.85;3.78;;;;;;;17.13;100.00;101351.72;6226258;28;20067;-70
2023/09/09 03:06:46;;;;;;;8.18;4.43;;;;;;;17.14;100.00;101345.44;6226324;28;20042;-72
2023/09/09 03:09:49;;;;;;;7.40;3.78;;;;;;;17.16;100.00;101343.50;6225735;28;20433;-69
2023/09/09 03:12:51;;;;;;;10.48;3.92;;;;;;;17.13;100.00;101346.41;6226195;28;20065;-70
2023/09/09 03:15:52;;;;;;;6.70;3.65;;;;;;;17.09;100.00;101342.25;6226196;28;20461;-70
2023/09/09 03:18:54;;;;;;;6.18;3.47;;;;;;;17.01;100.00;101339.28;6225711;28;20045;-70
2023/09/09 03:21:57;;;;;;;7.05;3.75;;;;;;;17.01;100.00;101340.16;6226068;28;20061;-70
2023/09/09 03:25:00;;;;;;;10.45;4.20;;;;;;;16.98;100.00;101341.19;6225907;28;20042;-70
2023/09/09 03:28:02;;;;;;;7.97;4.00;;;;;;;16.97;100.00;101334.19;6225728;28;20054;-70
2023/09/09 03:31:04;;;;;;;7.63;3.70;;;;;;;16.98;100.00;101335.03;6225858;28;20049;-69
2023/09/09 03:34:05;;;;;;;7.18;3.33;;;;;;;17.01;100.00;101341.97;6225861;28;20050;-69
2023/09/09 03:37:07;;;;;;;5.70;3.28;;;;;;;16.99;100.00;101342.06;6225919;28;20057;-71
2023/09/09 03:40:11;;;;;;;5.68;3.60;;;;;;;16.90;100.00;101340.91;6225720;28;20054;-69
2023/09/09 03:43:13;;;;;;;6.88;4.25;;;;;;;16.86;100.00;101333.28;6225788;28;20054;-70
2023/09/09 03:46:14;;;;;;;6.55;4.20;;;;;;;16.82;100.00;101337.09;6225900;28;20046;-69
2023/09/09 03:49:16;;;;;;;6.10;3.78;;;;;;;16.76;100.00;101334.84;6225418;28;20050;-69
2023/09/09 03:52:17;;;;;;;8.20;3.70;;;;;;;16.78;100.00;101339.09;6225943;28;20050;-69
2023/09/09 03:55:20;;;;;;;9.35;3.85;;;;;;;16.85;100.00;101334.19;6224653;28;20046;-69
2023/09/09 03:58:23;;;;;;;10.50;3.55;;;;;;;16.81;100.00;101336.25;6224941;28;20457;-69
2023/09/09 04:01:25;;;;;;;5.97;3.70;;;;;;;16.76;100.00;101348.13;6225549;28;20053;-69
2023/09/09 04:04:26;;;;;;;6.05;3.75;;;;;;;16.74;100.00;101337.63;6228761;28;20057;-69
2023/09/09 04:07:29;;;;;;;7.35;3.95;;;;;;;16.80;100.00;101344.31;6230145;28;20706;-71
2023/09/09 04:10:31;;;;;;;6.88;4.03;;;;;;;16.69;100.00;101345.03;6229893;28;20050;-69
2023/09/09 04:13:37;;;;;;;7.47;4.03;;;;;;;16.64;100.00;101345.34;6230175;28;20049;-71
2023/09/09 04:16:38;;;;;;;5.65;3.95;;;;;;;16.63;100.00;101351.63;6222273;28;20046;-70
2023/09/09 04:19:40;;;;;;;4.40;3.50;;;;;;;16.63;100.00;101356.94;6229817;28;20057;-71
2023/09/09 04:22:41;;;;;;;7.15;4.15;;;;;;;16.63;100.00;101348.13;6229909;28;20057;-69
2023/09/09 04:25:45;;;;;;;7.22;4.03;;;;;;;16.59;100.00;101350.13;6229974;28;20046;-70
2023/09/09 04:28:46;;;;;;;8.18;4.05;;;;;;;16.59;100.00;101346.63;6229752;28;20061;-69
2023/09/09 04:31:48;;;;;;;8.07;4.28;;;;;;;16.59;100.00;101354.59;6229673;28;20358;-69
2023/09/09 04:34:49;;;;;;;5.47;3.53;;;;;;;16.56;100.00;101346.81;6229849;28;20053;-69
2023/09/09 04:37:51;;;;;;;7.95;3.90;;;;;;;16.49;100.00;101352.56;6229120;28;20050;-69
2023/09/09 04:40:54;;;;;;;9.93;4.10;;;;;;;16.49;100.00;101351.72;6229135;28;20464;-69
2023/09/09 04:43:55;;;;;;;8.88;3.50;;;;;;;16.47;100.00;101346.50;6229302;28;20046;-71
2023/09/09 04:46:56;;;;;;;6.80;4.18;;;;;;;16.44;100.00;101349.38;6229289;28;20056;-71
2023/09/09 04:49:59;;;;;;;7.70;3.63;;;;;;;16.44;100.00;101354.69;6228945;28;20046;-69
2023/09/09 04:53:02;;;;;;;6.72;4.13;;;;;;;16.45;100.00;101355.53;6222229;28;20361;-70
2023/09/09 04:56:05;;;;;;;6.45;3.10;;;;;;;16.43;100.00;101350.31;6227895;28;20074;-69
2023/09/09 04:59:06;;;;;;;7.80;3.97;;;;;;;16.42;100.00;101356.56;6220037;28;20050;-69
2023/09/09 05:02:08;;;;;;;7.70;4.00;;;;;;;16.40;100.00;101357.66;6216964;28;20073;-70
2023/09/09 05:05:09;;;;;;;8.38;3.85;;;;;;;16.34;100.00;101356.25;6218393;28;20345;-71
2023/09/09 05:08:11;;;;;;;6.20;4.22;;;;;;;16.32;100.00;101354.66;6228663;28;20054;-78
2023/09/09 05:11:13;;;;;;;7.00;4.38;;;;;;;16.28;100.00;101358.47;6228858;28;20054;-78
2023/09/09 05:14:15;;;;;;;5.82;3.80;;;;;;;16.28;100.00;101354.00;6223150;28;20050;-74
2023/09/09 05:17:16;;;;;;;14.88;4.60;;;;;;;16.28;100.00;101356.66;6222635;28;20050;-73
2023/09/09 05:20:18;;;;;;;10.60;4.90;;;;;;;16.26;100.00;101357.72;6228357;28;20331;-74
2023/09/09 05:23:19;;;;;;;12.02;4.85;;;;;;;16.27;100.00;101356.78;6228585;28;20045;-72
2023/09/09 05:26:22;;;;;;;8.15;4.25;;;;;;;16.34;100.00;101356.25;6228671;28;20045;-73
2023/09/09 05:29:24;;;;;;;8.90;4.60;;;;;;;16.38;100.00;101362.19;6228151;28;20085;-73
2023/09/09 05:32:25;;;;;;;6.20;3.90;;;;;;;16.42;100.00;101361.88;6228634;28;20049;-73
2023/09/09 05:35:27;;;;;;;5.93;3.70;;;;;;;16.45;100.00;101356.38;6204360;28;20055;-73
2023/09/09 05:38:29;;;;;;;7.55;4.60;;;;;;;16.49;100.00;101365.00;6203642;28;20061;-73
2023/09/09 05:41:32;;;;;;;7.60;4.53;;;;;;;16.49;100.00;101368.50;6203956;28;20054;-74
2023/09/09 05:44:35;;;;;;;8.48;4.43;;;;;;;16.49;100.00;101367.63;6203602;28;20050;-74
2023/09/09 05:47:36;;;;;;;6.20;4.00;;;;;;;16.52;100.00;101364.75;6203565;28;20058;-73
2023/09/09 05:50:37;;;;;;;6.65;3.95;;;;;;;16.59;100.00;101367.84;6218333;28;20049;-73
2023/09/09 05:53:39;;;;;;;6.97;3.92;;;;;;;16.60;100.00;101366.91;6225913;28;20053;-74
2023/09/09 05:56:42;;;;;;;6.57;4.20;;;;;;;16.64;100.00;101379.84;6219836;28;20042;-74
2023/09/09 05:59:44;;;;;;;7.32;3.95;;;;;;;16.68;100.00;101369.88;6215610;28;20057;-68
2023/09/09 06:02:45;;;;;;;7.32;4.25;;;;;;;16.74;100.00;101374.78;6217983;28;20361;-68
2023/09/09 06:05:47;;;;;;;7.63;4.25;;;;;;;16.76;100.00;101378.19;6220426;28;20046;-69
2023/09/09 06:08:50;;;;;;;8.27;4.10;;;;;;;16.79;100.00;101382.44;6220558;28;20049;-68
2023/09/09 06:11:52;;;;;;;5.03;3.50;;;;;;;16.88;100.00;101377.31;6227805;28;20053;-70
2023/09/09 06:14:54;;;;;;;7.15;4.90;;;;;;;16.92;100.00;101384.13;6227415;28;20049;-70
2023/09/09 06:17:57;;;;;;;6.85;4.03;;;;;;;16.97;100.00;101381.16;6226775;28;20045;-70
2023/09/09 06:20:58;;;;;;;9.48;4.55;;;;;;;16.99;100.00;101381.91;6227299;28;20092;-69
2023/09/09 06:24:00;;;;;;;6.88;4.25;;;;;;;17.03;100.00;101388.66;6227156;28;20068;-68
2023/09/09 06:27:02;;;;;;;7.13;4.10;;;;;;;17.08;100.00;101389.22;6226096;28;20042;-69
2023/09/09 06:30:05;;;;;;;10.88;3.80;;;;;;;17.14;100.00;101385.28;6225426;28;20045;-70
2023/09/09 06:33:06;;;;;;;5.97;3.80;;;;;;;17.18;100.00;101387.59;6223376;28;20464;-69
2023/09/09 06:36:07;;;;;;;7.82;4.40;;;;;;;17.26;100.00;101397.69;6223811;28;20049;-70
2023/09/09 06:39:09;;;;;;;7.97;4.07;;;;;;;17.34;100.00;101394.47;6226595;28;20057;-69
2023/09/09 06:42:13;;;;;;;7.93;4.72;;;;;;;17.38;100.00;101390.66;6226482;28;20350;-70
2023/09/09 06:45:15;;;;;;;8.93;3.85;;;;;;;17.42;100.00;101395.63;6226052;28;20052;-69
2023/09/09 06:48:17;;;;;;;4.90;3.58;;;;;;;17.51;100.00;101391.47;6225660;28;20046;-70
2023/09/09 06:51:18;;;;;;;6.32;4.22;;;;;;;17.58;100.00;101397.19;6223774;28;20101;-71
2023/09/09 06:54:20;;;;;;;10.10;3.55;;;;;;;17.65;100.00;101399.28;6225534;28;20346;-69
2023/09/09 06:57:22;;;;;;;7.32;4.30;;;;;;;17.73;100.00;101399.59;6225480;28;20049;-69
2023/09/09 07:00:24;;;;;;;5.07;3.83;;;;;;;17.84;100.00;101403.28;6271258;22;20049;-77
2023/09/09 07:03:25;;;;;;;5.55;3.63;;;;;;;17.93;100.00;101405.28;6260410;28;20048;-76
2023/09/09 07:06:26;;;;;;;6.32;3.60;;;;;;;17.98;100.00;101401.31;6275368;28;20045;-77
2023/09/09 07:09:28;;;;;;;7.55;4.55;;;;;;;18.10;100.00;101409.34;6250648;28;20060;-77
2023/09/09 07:12:31;;;;;;;14.48;5.20;;;;;;;18.19;100.00;101409.50;6256044;28;20059;-76
2023/09/09 07:15:35;;;;;;;9.07;4.07;;;;;;;18.36;100.00;101415.38;6275341;28;20040;-77
2023/09/09 07:18:36;;;;;;;5.93;3.88;;;;;;;18.48;100.00;101417.94;6274812;28;20364;-77
2023/09/09 07:21:38;;;;;;;7.07;3.90;;;;;;;18.55;100.00;101412.16;6275147;28;20334;-76
2023/09/09 07:24:39;;;;;;;7.65;4.22;;;;;;;18.63;100.00;101415.09;6275096;28;20072;-75
2023/09/09 07:27:42;;;;;;;5.63;3.55;;;;;;;18.77;100.00;101409.59;6274828;28;20049;-76
2023/09/09 07:30:44;;;;;;;10.38;6.53;;;;;;;18.84;100.00;101410.78;6275100;28;20060;-77
2023/09/09 07:33:45;;;;;;;11.45;5.07;;;;;;;18.98;100.00;101415.06;6274975;28;20060;-77
2023/09/09 07:36:47;;;;;;;6.55;3.50;;;;;;;19.12;100.00;101419.28;6275792;28;20425;-77
2023/09/09 07:39:51;;;;;;;4.63;3.25;;;;;;;19.24;100.00;101413.84;6279685;28;20053;-77
2023/09/09 07:42:53;;;;;;;6.85;3.83;;;;;;;19.40;100.00;101413.50;6280244;28;20052;-77
2023/09/09 07:45:55;;;;;;;10.63;4.53;;;;;;;19.51;100.00;101412.63;6279894;28;20085;-78
2023/09/09 07:48:56;;;;;;;4.53;3.05;;;;;;;19.68;100.00;101409.47;6279251;28;20048;-78
2023/09/09 07:51:58;;;;;;;5.18;3.63;;;;;;;19.80;100.00;101412.09;6279833;28;20049;-77
2023/09/09 07:54:59;;;;;;;6.03;3.70;;;;;;;19.81;100.00;101420.00;6280284;28;20053;-77
2023/09/09 07:58:02;;;;;;;4.50;2.72;;;;;;;19.88;100.00;101410.50;6279630;28;20056;-77
2023/09/09 08:01:05;;;;;;;5.28;3.10;;;;;;;19.90;100.00;101405.91;6274275;28;20052;-77
2023/09/09 08:04:06;;;;;;;4.95;3.38;;;;;;;19.94;100.00;101403.81;6278412;28;20488;-77
2023/09/09 08:07:08;;;;;;;3.50;2.55;;;;;;;20.00;100.00;101408.66;6275449;28;20369;-76
2023/09/09 08:10:12;;;;;;;6.25;3.35;;;;;;;20.10;100.00;101416.75;6279165;28;20308;-77
2023/09/09 08:13:15;;;;;;;9.05;3.72;;;;;;;20.19;100.00;101407.97;6279270;28;20084;-72
2023/09/09 08:16:16;;;;;;;6.38;3.47;;;;;;;20.34;100.00;101405.84;6279341;28;20053;-73
2023/09/09 08:19:17;;;;;;;6.07;3.50;;;;;;;20.37;100.00;101410.94;6278995;28;20057;-72
2023/09/09 08:22:19;;;;;;;6.45;3.38;;;;;;;20.44;100.00;101410.31;6279444;28;20060;-72
2023/09/09 08:25:20;;;;;;;7.15;3.22;;;;;;;20.52;100.00;101415.00;6278859;28;20048;-73
2023/09/09 08:28:23;;;;;;;4.10;2.97;;;;;;;20.68;100.00;101412.75;6268508;28;20048;-74
2023/09/09 08:31:24;;;;;;;4.90;3.22;;;;;;;20.87;100.00;101413.81;6265632;28;20049;-75
2023/09/09 08:34:26;;;;;;;6.28;3.80;;;;;;;20.99;100.00;101418.97;6276530;28;20056;-75
2023/09/09 08:37:27;;;;;;;5.50;3.22;;;;;;;21.02;100.00;101421.34;6266865;28;20041;-74
2023/09/09 08:40:29;;;;;;;7.00;3.80;;;;;;;21.05;100.00;101425.59;6274256;28;20047;-72
2023/09/09 08:43:38;;;;;;;5.93;3.50;;;;;;;21.25;100.00;101421.16;6277717;28;20052;-73
2023/09/09 08:46:39;;;;;;;15.88;9.07;;;;;;;21.27;100.00;101416.56;6273115;28;20056;-74
2023/09/09 08:49:43;;;;;;;4.07;3.13;;;;;;;21.40;100.00;101422.56;6276432;28;20372;-75
2023/09/09 08:52:48;;;;;;;7.78;3.25;;;;;;;21.53;100.00;101422.31;6278303;28;20049;-73
2023/09/09 08:55:50;;;;;;;4.28;2.90;;;;;;;21.55;100.00;101423.00;6278548;28;20045;-73
2023/09/09 08:58:53;;;;;;;4.90;2.80;;;;;;;21.58;100.00;101424.56;6277896;28;20433;-72
2023/09/09 09:01:57;;;;;;;4.82;3.22;;;;;;;21.57;100.00;101422.84;6277282;28;20353;-73
2023/09/09 09:04:59;;;;;;;5.22;3.33;;;;;;;21.67;100.00;101421.09;6277910;28;20041;-73
2023/09/09 09:08:01;;;;;;;5.43;3.05;;;;;;;21.77;100.00;101414.75;6277159;28;20131;-73
2023/09/09 09:11:04;;;;;;;6.22;4.00;;;;;;;21.85;100.00;101422.09;6276998;28;20055;-73
2023/09/09 09:14:08;;;;;;;4.93;3.40;;;;;;;21.95;100.00;101422.09;6276458;28;20052;-73
2023/09/09 09:17:10;;;;;;;4.85;3.08;;;;;;;22.08;100.00;101422.69;6277334;28;20065;-73
2023/09/09 09:20:25;;;;;;;4.95;3.53;;;;;;;22.14;100.00;101419.47;6276197;28;20129;-73
2023/09/09 09:23:27;;;;;;;5.05;3.00;;;;;;;22.19;100.00;101421.72;6277834;28;20126;-73
2023/09/09 09:26:30;;;;;;;7.25;3.30;;;;;;;22.45;96.94;101422.84;6277597;28;20357;-73
2023/09/09 09:29:40;;;;;;;4.00;2.85;;;;;;;22.66;95.36;101414.63;6276636;28;20045;-73
2023/09/09 09:32:42;;;;;;;4.57;3.00;;;;;;;22.73;94.40;101421.09;6277743;28;20081;-73
2023/09/09 09:35:43;;;;;;;4.55;3.10;;;;;;;22.79;93.34;101411.63;6277734;28;20049;-73
2023/09/09 09:38:45;;;;;;;5.13;2.97;;;;;;;22.83;93.04;101414.88;6276933;28;20075;-73
2023/09/09 09:41:48;;;;;;;5.82;3.42;;;;;;;22.93;90.94;101413.03;6277523;28;20475;-73
2023/09/09 09:45:07;;;;;;;5.55;3.20;;;;;;;23.15;91.79;101418.03;6277444;28;20064;-73
2023/09/09 09:48:09;;;;;;;4.53;2.80;;;;;;;23.15;89.66;101423.41;6276691;28;20330;-72
2023/09/09 09:51:10;;;;;;;4.05;2.75;;;;;;;23.20;91.22;101414.91;6277146;28;20052;-73
2023/09/09 09:54:17;;;;;;;3.80;2.70;;;;;;;23.30;91.66;101413.06;6277113;28;20049;-73
2023/09/09 09:57:21;;;;;;;4.22;3.22;;;;;;;23.50;89.73;101408.44;6276223;28;20045;-73
2023/09/09 10:00:25;;;;;;;5.55;3.65;;;;;;;23.65;87.46;101415.00;6274595;28;20048;-73
2023/09/09 10:03:34;;;;;;;3.72;2.55;;;;;;;23.76;87.09;101416.66;6276727;28;20059;-72
2023/09/09 10:06:37;;;;;;;20.88;11.88;;;;;;;23.72;86.81;101402.69;6275809;28;20371;-71
2023/09/09 10:09:43;;;;;;;10.27;5.60;;;;;;;23.90;87.50;101404.53;6275225;28;20048;-73
2023/09/09 10:12:51;;;;;;;5.60;3.58;;;;;;;24.02;86.92;101405.97;6271100;28;20053;-73
2023/09/09 10:15:56;;;;;;;5.65;2.92;;;;;;;24.00;87.37;101403.47;6276545;28;20045;-73
2023/09/09 10:18:58;;;;;;;8.07;3.17;;;;;;;24.18;86.61;101391.88;6276011;28;20049;-70
2023/09/09 10:22:01;;;;;;;4.43;2.90;;;;;;;24.21;86.22;101400.47;6274686;28;20075;-73
2023/09/09 10:25:04;;;;;;;3.78;2.63;;;;;;;24.23;86.22;101390.41;6275663;28;20060;-73
2023/09/09 10:28:06;;;;;;;4.30;3.25;;;;;;;24.37;81.00;101393.56;6275112;28;20118;-73
2023/09/09 10:31:12;;;;;;;5.50;3.03;;;;;;;24.41;81.04;101401.16;6275583;28;20048;-71
2023/09/09 10:34:16;;;;;;;5.13;3.13;;;;;;;24.52;79.92;101390.16;6275516;28;20437;-71
2023/09/09 10:37:19;;;;;;;5.63;3.13;;;;;;;24.58;81.17;101387.84;6275783;28;20063;-71
2023/09/09 10:40:21;;;;;;;7.82;3.00;;;;;;;24.78;81.40;101387.47;6275742;28;20056;-71
2023/09/09 10:43:23;;;;;;;7.03;3.20;;;;;;;24.96;79.50;101390.09;6275097;28;20048;-71
2023/09/09 10:46:34;;;;;;;4.13;2.65;;;;;;;24.99;77.74;101387.09;6275833;28;20048;-72
2023/09/09 10:49:35;;;;;;;5.00;3.80;;;;;;;25.39;76.23;101390.13;6274752;28;20459;-73
2023/09/09 10:52:37;;;;;;;3.08;2.50;;;;;;;25.27;75.10;101389.59;6275683;28;20052;-74
2023/09/09 10:55:38;;;;;;;7.93;3.17;;;;;;;25.38;75.30;101378.53;6275671;28;20459;-73
2023/09/09 10:58:40;;;;;;;5.43;2.83;;;;;;;25.53;73.52;101386.84;6275456;28;20429;-73
2023/09/09 11:01:43;;;;;;;3.92;2.90;;;;;;;25.61;72.32;101389.53;6274643;28;20122;-73
2023/09/09 11:04:57;;;;;;;5.88;2.95;;;;;;;25.70;72.02;101380.47;6266752;28;20045;-73
2023/09/09 11:07:58;;;;;;;4.60;3.03;;;;;;;26.03;69.48;101383.25;6274961;28;20049;-73
2023/09/09 11:11:11;;;;;;;3.97;2.83;;;;;;;25.91;69.74;101379.19;6275441;28;20060;-73
2023/09/09 11:14:13;;;;;;;3.38;2.63;;;;;;;25.95;66.93;101381.41;6275183;28;20102;-74
2023/09/09 11:17:16;;;;;;;4.22;2.60;;;;;;;26.19;68.94;101375.16;6275221;28;20045;-74
2023/09/09 11:20:21;;;;;;;6.25;3.13;;;;;;;26.26;69.32;101378.03;6272827;28;20045;-74
2023/09/09 11:23:25;;;;;;;4.22;3.05;;;;;;;26.51;68.23;101376.19;6271940;28;20127;-77
2023/09/09 11:26:27;;;;;;;7.97;3.03;;;;;;;26.64;66.86;101386.44;6271531;28;20105;-73
2023/09/09 11:29:31;;;;;;;3.47;2.90;;;;;;;26.90;66.00;101381.69;6271997;28;20057;-73
2023/09/09 11:32:34;;;;;;;6.35;2.95;;;;;;;26.83;65.96;101375.28;6274328;28;20457;-73
2023/09/09 11:35:36;;;;;;;3.75;2.60;;;;;;;27.04;63.26;101378.25;6273907;28;20045;-73
2023/09/09 11:38:39;;;;;;;2.90;2.60;;;;;;;27.27;66.13;101375.66;6273485;28;20555;-71
2023/09/09 11:41:40;;;;;;;5.40;2.78;;;;;;;27.49;62.56;101379.44;6273784;28;20060;-71
2023/09/09 11:44:43;;;;;;;4.30;2.65;;;;;;;27.71;58.86;101375.09;6274115;28;20513;-71
2023/09/09 11:47:46;;;;;;;3.88;2.70;;;;;;;27.95;56.67;101371.41;6274594;28;20041;-71
2023/09/09 11:50:48;;;;;;;4.63;3.17;;;;;;;28.14;55.88;101372.75;6274603;28;20053;-71
2023/09/09 11:53:50;;;;;;;3.03;2.13;;;;;;;28.30;54.44;101372.63;6274522;28;20045;-71
2023/09/09 11:56:51;;;;;;;3.75;2.45;;;;;;;28.44;53.16;101367.47;6274774;28;20463;-71
2023/09/09 11:59:54;;;;;;;4.15;2.58;;;;;;;28.62;50.37;101359.00;6274054;28;20131;-71
2023/09/09 12:02:57;;;;;;;4.28;2.42;;;;;;;28.75;50.77;101364.59;6274963;28;20061;-71
2023/09/09 12:05:59;;;;;;;4.20;2.88;;;;;;;28.86;51.51;101361.44;6274815;28;20049;-71
2023/09/09 12:09:02;;;;;;;5.03;2.65;;;;;;;29.01;51.46;101367.69;6274306;28;20045;-71
2023/09/09 12:12:05;;;;;;;3.55;2.67;;;;;;;29.33;50.29;101352.06;6274941;28;20132;-71
2023/09/09 12:15:07;;;;;;;3.65;2.70;;;;;;;29.39;52.05;101353.16;6273429;28;20052;-71
2023/09/09 12:18:12;;;;;;;3.70;2.63;;;;;;;29.51;52.51;101355.19;6273974;28;20041;-71
2023/09/09 12:21:13;;;;;;;4.15;2.75;;;;;;;29.54;49.66;101352.09;6267120;28;20073;-70
2023/09/09 12:24:15;;;;;;;3.75;2.80;;;;;;;29.88;49.13;101352.47;6275066;28;20049;-71
2023/09/09 12:27:16;;;;;;;6.20;2.63;;;;;;;29.92;50.22;101351.88;6278378;28;20041;-71
2023/09/09 12:30:34;;;;;;;6.32;2.50;;;;;;;30.03;51.23;101347.84;6278019;28;20056;-71
2023/09/09 12:33:45;;;;;;;3.90;2.55;;;;;;;30.10;50.52;101348.72;6275127;28;20041;-71
2023/09/09 12:36:47;;;;;;;7.38;2.53;;;;;;;30.31;51.39;101348.72;6271064;28;20056;-71
2023/09/09 12:39:59;;;;;;;3.78;2.53;;;;;;;30.30;48.68;101349.75;6278589;28;20598;-71
2023/09/09 12:43:09;;;;;;;3.38;2.55;;;;;;;30.29;45.64;101355.34;6278814;28;20064;-71
2023/09/09 12:46:14;;;;;;;2.78;2.10;;;;;;;30.29;46.47;101355.34;6278516;28;20053;-72
2023/09/09 12:49:17;;;;;;;9.73;3.03;;;;;;;30.33;47.10;101349.34;6278552;28;20073;-71
2023/09/09 12:52:18;;;;;;;5.18;2.60;;;;;;;30.41;47.62;101350.25;6278708;28;20060;-71
2023/09/09 12:55:21;;;;;;;4.97;2.80;;;;;;;30.71;47.84;101348.16;6278219;28;20460;-71
2023/09/09 12:58:22;;;;;;;2.95;2.13;;;;;;;30.69;48.45;101352.94;6294225;22;20054;-73
2023/09/09 13:01:23;;;;;;;3.40;2.42;;;;;;;30.74;48.58;101354.03;6227853;28;20056;-73
2023/09/09 13:04:26;;;;;;;4.50;2.92;;;;;;;30.78;48.25;101355.31;6223354;28;20042;-73
2023/09/09 13:07:27;;;;;;;5.18;3.20;;;;;;;30.78;48.13;101344.44;6225624;28;20467;-75
2023/09/09 13:10:29;;;;;;;8.57;2.80;;;;;;;30.97;47.25;101348.31;6206501;28;20046;-73
2023/09/09 13:13:31;;;;;;;4.28;2.30;;;;;;;31.01;49.34;101348.75;6205776;28;20062;-73
2023/09/09 13:16:32;;;;;;;4.28;2.70;;;;;;;30.62;47.92;101350.19;6207970;28;20134;-73
2023/09/09 13:19:35;;;;;;;6.03;2.97;;;;;;;30.77;48.92;101344.66;6204552;28;20453;-73
2023/09/09 13:22:36;;;;;;;4.47;2.78;;;;;;;31.18;48.13;101349.25;6204135;28;20370;-73
2023/09/09 13:25:38;;;;;;;4.28;2.58;;;;;;;31.28;46.09;101347.84;6204200;28;20058;-73
2023/09/09 13:28:39;;;;;;;4.55;2.90;;;;;;;31.48;46.10;101344.38;6195392;28;20056;-73
2023/09/09 13:31:40;;;;;;;3.80;2.58;;;;;;;31.50;45.46;101337.66;6203968;28;20050;-74
2023/09/09 13:34:43;;;;;;;3.85;2.72;;;;;;;31.58;47.13;101337.50;6201743;28;20054;-73
2023/09/09 13:37:44;;;;;;;4.28;3.00;;;;;;;31.48;45.53;101336.22;6203533;28;20054;-73
2023/09/09 13:40:46;;;;;;;6.47;2.10;;;;;;;31.94;46.05;101328.16;6195853;28;20053;-74
2023/09/09 13:43:47;;;;;;;5.60;2.78;;;;;;;32.20;44.86;101332.72;6203513;28;20054;-73
2023/09/09 13:46:49;;;;;;;4.55;2.53;;;;;;;32.37;44.87;101324.16;6202857;28;20073;-73
2023/09/09 13:49:51;;;;;;;7.00;2.83;;;;;;;32.50;44.47;101327.72;6193704;28;20046;-74
2023/09/09 13:52:53;;;;;;;4.93;2.75;;;;;;;32.56;43.86;101318.69;6204407;28;20354;-74
2023/09/09 13:55:56;;;;;;;4.50;2.53;;;;;;;32.65;44.38;101327.47;6205134;28;20069;-74
2023/09/09 13:58:58;;;;;;;4.85;2.42;;;;;;;32.80;42.14;101314.44;6200087;28;20050;-73
2023/09/09 14:02:01;;;;;;;3.28;2.70;;;;;;;32.89;41.88;101325.13;6202191;28;20054;-74